Time;durP1;ratioP1;P1;durP2;ratioP2;P2;SDS_P1;SDS_P2;PMS_P1;PMS_P2;Temp;Humidity;BMP_temperature;BMP_pressure;BME280_temperature;BME280_humidity;BME280_pressure;Samples;Min_cycle;Max_cycle;Signal;HPM_P1;HPM_P2
2022/05/28 00:01:39;;;;;;;5.10;1.90;;;18.90;58.10;;;;;;5094725;28;20051;-72
2022/05/28 00:04:07;;;;;;;2.97;1.40;;;19.30;58.10;;;;;;5096152;28;20086;-72
2022/05/28 00:06:34;;;;;;;2.70;1.30;;;19.10;53.90;;;;;;5107335;28;20409;-72
2022/05/28 00:09:01;;;;;;;2.35;1.40;;;19.10;54.00;;;;;;5089984;28;20084;-72
2022/05/28 00:11:29;;;;;;;2.92;1.50;;;19.10;54.00;;;;;;5099347;28;20405;-71
2022/05/28 00:13:55;;;;;;;2.75;1.40;;;19.90;57.40;;;;;;5109931;28;20135;-72
2022/05/28 00:16:24;;;;;;;2.85;1.48;;;19.10;57.70;;;;;;5109078;28;20054;-72
2022/05/28 00:18:51;;;;;;;2.33;1.50;;;19.00;57.50;;;;;;5109341;28;20055;-72
2022/05/28 00:21:18;;;;;;;3.60;1.55;;;19.10;54.10;;;;;;5106571;28;20048;-71
2022/05/28 00:23:45;;;;;;;4.40;1.60;;;19.10;57.00;;;;;;5088282;28;20062;-71
2022/05/28 00:26:12;;;;;;;2.67;1.33;;;19.10;57.70;;;;;;5088616;28;20048;-71
2022/05/28 00:28:39;;;;;;;3.10;1.55;;;18.10;57.40;;;;;;5095647;28;20051;-72
2022/05/28 00:31:06;;;;;;;3.35;1.50;;;19.10;54.10;;;;;;5108497;28;20135;-72
2022/05/28 00:33:34;;;;;;;4.20;1.50;;;19.00;54.10;;;;;;5108724;28;20568;-72
2022/05/28 00:36:01;;;;;;;3.30;1.48;;;19.00;57.50;;;;;;5108658;28;20052;-72
2022/05/28 00:38:28;;;;;;;3.45;1.30;;;18.20;58.70;;;;;;5110202;28;20054;-72
2022/05/28 00:40:56;;;;;;;2.83;1.30;;;19.00;54.10;;;;;;5104518;28;20054;-72
2022/05/28 00:43:22;;;;;;;2.90;1.42;;;19.00;58.00;;;;;;5088121;28;20062;-72
2022/05/28 00:45:51;;;;;;;2.95;1.25;;;18.90;54.10;;;;;;5088473;28;20051;-72
2022/05/28 00:48:21;;;;;;;2.35;1.25;;;18.90;57.50;;;;;;5089683;28;20556;-71
2022/05/28 00:50:49;;;;;;;4.07;1.45;;;19.00;58.40;;;;;;5092216;28;20056;-72
2022/05/28 00:53:16;;;;;;;1.77;1.30;;;19.00;58.20;;;;;;5108674;28;20058;-72
2022/05/28 00:55:42;;;;;;;2.88;1.20;;;17.20;53.20;;;;;;5109767;28;20567;-72
2022/05/28 00:58:09;;;;;;;2.85;1.30;;;18.90;54.20;;;;;;5109309;28;20048;-72
2022/05/28 01:00:36;;;;;;;2.30;1.20;;;18.80;59.10;;;;;;5107054;28;20577;-72
2022/05/28 01:03:08;;;;;;;2.72;1.25;;;18.40;57.80;;;;;;5103856;28;20062;-72
2022/05/28 01:05:37;;;;;;;2.85;1.30;;;18.90;58.30;;;;;;5108158;28;20062;-72
2022/05/28 01:08:14;;;;;;;2.25;1.20;;;18.90;54.30;;;;;;5092951;28;20413;-72
2022/05/28 01:10:45;;;;;;;2.95;1.27;;;18.90;54.20;;;;;;5103569;28;20135;-72
2022/05/28 01:13:15;;;;;;;1.75;1.17;;;18.10;57.70;;;;;;5108154;28;20442;-71
2022/05/28 01:15:45;;;;;;;1.65;1.25;;;18.20;58.00;;;;;;5108038;28;20051;-72
2022/05/28 01:18:14;;;;;;;2.47;1.20;;;18.90;54.30;;;;;;5108330;28;20052;-72
2022/05/28 01:20:42;;;;;;;2.35;1.17;;;19.00;58.60;;;;;;5107680;28;20055;-72
2022/05/28 01:23:37;;;;;;;2.03;1.20;;;18.80;58.30;;;;;;5107613;28;20409;-72
2022/05/28 01:26:09;;;;;;;2.85;1.40;;;18.80;54.80;;;;;;5108218;28;20508;-72
2022/05/28 01:28:38;;;;;;;2.72;1.20;;;18.80;54.30;;;;;;5107903;28;20040;-72
2022/05/28 01:31:06;;;;;;;1.58;1.05;;;18.80;54.40;;;;;;5103296;28;20058;-72
2022/05/28 01:33:34;;;;;;;2.15;1.20;;;19.90;59.60;;;;;;5087269;28;20060;-72
2022/05/28 01:36:01;;;;;;;2.60;1.20;;;18.80;54.40;;;;;;5087313;28;20055;-72
2022/05/28 01:38:28;;;;;;;2.70;1.30;;;18.70;54.30;;;;;;5087677;28;20403;-71
2022/05/28 01:40:54;;;;;;;1.98;1.20;;;19.70;58.90;;;;;;5090222;28;20064;-72
2022/05/28 01:43:21;;;;;;;3.20;1.30;;;18.90;58.50;;;;;;5107935;28;20067;-72
2022/05/28 01:45:49;;;;;;;2.60;1.10;;;18.90;58.70;;;;;;5109211;28;20051;-72
2022/05/28 01:48:17;;;;;;;2.60;1.20;;;18.70;54.30;;;;;;5108587;28;20050;-72
2022/05/28 01:50:45;;;;;;;3.50;1.20;;;18.90;58.80;;;;;;5107016;28;20493;-72
2022/05/28 01:54:06;;;;;;;2.47;1.27;;;18.70;54.30;;;;;;5106350;28;20526;-72
2022/05/28 01:56:01;;;;;;;1.98;1.30;;;17.80;58.00;;;;;;5107183;28;20055;-71
2022/05/28 01:58:27;;;;;;;3.10;1.40;;;18.80;58.60;;;;;;5107893;28;20051;-72
2022/05/28 02:00:56;;;;;;;3.45;1.20;;;18.80;58.30;;;;;;5104942;28;20051;-72
2022/05/28 02:03:22;;;;;;;2.65;1.10;;;18.90;58.90;;;;;;5086345;28;20112;-72
2022/05/28 02:05:49;;;;;;;2.15;1.30;;;18.90;59.10;;;;;;5094333;28;20066;-72
2022/05/28 02:08:16;;;;;;;2.58;1.20;;;17.10;57.60;;;;;;5108733;28;20414;-72
2022/05/28 02:10:43;;;;;;;2.20;1.27;;;18.50;57.90;;;;;;5107055;28;20131;-72
2022/05/28 02:13:13;;;;;;;2.10;1.40;;;18.90;58.80;;;;;;5088097;28;20133;-72
2022/05/28 02:15:43;;;;;;;2.03;1.30;;;18.50;58.00;;;;;;5091039;28;20134;-72
2022/05/28 02:18:19;;;;;;;2.63;1.30;;;18.60;54.30;;;;;;5091292;28;20047;-72
2022/05/28 02:20:51;;;;;;;2.03;1.25;;;18.50;58.20;;;;;;5091505;28;20052;-72
2022/05/28 02:23:20;;;;;;;3.55;1.40;;;18.60;54.40;;;;;;5111182;28;20049;-72
2022/05/28 02:25:50;;;;;;;2.40;1.30;;;18.60;54.30;;;;;;5111469;28;20047;-72
2022/05/28 02:28:17;;;;;;;3.30;1.20;;;18.60;54.30;;;;;;5110969;28;20040;-72
2022/05/28 02:30:47;;;;;;;3.47;1.20;;;18.30;57.70;;;;;;5111376;28;20486;-72
2022/05/28 02:33:15;;;;;;;2.22;1.13;;;18.60;54.30;;;;;;5091891;28;20048;-72
2022/05/28 02:35:44;;;;;;;2.60;1.20;;;18.60;58.40;;;;;;5091444;28;20054;-72
2022/05/28 02:38:11;;;;;;;2.58;1.13;;;18.60;58.90;;;;;;5092089;28;20134;-72
2022/05/28 02:40:38;;;;;;;2.95;1.30;;;18.60;54.40;;;;;;5090918;28;20052;-72
2022/05/28 02:43:04;;;;;;;2.83;1.40;;;18.60;54.40;;;;;;5111832;28;20494;-72
2022/05/28 02:45:31;;;;;;;2.85;1.13;;;19.20;58.80;;;;;;5111262;28;20055;-72
2022/05/28 02:47:58;;;;;;;3.05;1.40;;;18.60;54.40;;;;;;5110789;28;20048;-72
2022/05/28 02:50:27;;;;;;;2.80;1.10;;;18.30;58.30;;;;;;5110873;28;20052;-72
2022/05/28 02:52:53;;;;;;;2.60;1.15;;;18.60;58.70;;;;;;5092654;28;20044;-72
2022/05/28 02:55:20;;;;;;;3.30;1.42;;;18.40;59.10;;;;;;5090490;28;20058;-72
2022/05/28 02:57:47;;;;;;;4.10;1.20;;;18.50;58.40;;;;;;5090504;28;20052;-72
2022/05/28 03:00:15;;;;;;;2.13;1.10;;;18.50;54.40;;;;;;5090482;28;20378;-72
2022/05/28 03:02:42;;;;;;;2.80;1.20;;;17.60;58.10;;;;;;5093225;28;20048;-72
2022/05/28 03:05:09;;;;;;;1.75;1.02;;;18.90;58.20;;;;;;5090215;28;20131;-73
2022/05/28 03:07:37;;;;;;;2.78;1.20;;;18.50;54.40;;;;;;5090364;28;20058;-72
2022/05/28 03:10:05;;;;;;;3.10;1.30;;;18.50;54.40;;;;;;5090464;28;20044;-73
2022/05/28 03:12:32;;;;;;;2.45;1.10;;;18.60;58.60;;;;;;5090962;28;20056;-72
2022/05/28 03:14:58;;;;;;;2.30;1.15;;;18.60;58.60;;;;;;5089808;28;20534;-73
2022/05/28 03:17:25;;;;;;;3.85;1.20;;;18.60;59.00;;;;;;5091585;28;20044;-73
2022/05/28 03:19:53;;;;;;;2.72;1.00;;;18.40;58.10;;;;;;5091131;28;20647;-73
2022/05/28 03:22:20;;;;;;;2.75;1.10;;;17.50;57.70;;;;;;5103834;28;20401;-73
2022/05/28 03:24:48;;;;;;;2.70;1.30;;;18.50;59.50;;;;;;5110732;28;20044;-73
2022/05/28 03:27:14;;;;;;;3.90;1.13;;;17.70;57.60;;;;;;5110236;28;20485;-72
2022/05/28 03:29:41;;;;;;;1.63;1.00;;;18.40;58.50;;;;;;5109308;28;20047;-72
2022/05/28 03:32:08;;;;;;;1.58;1.00;;;18.40;54.40;;;;;;5109579;28;20052;-72
2022/05/28 03:34:35;;;;;;;1.73;1.00;;;18.60;58.60;;;;;;5110111;28;20051;-70
2022/05/28 03:37:02;;;;;;;2.78;1.40;;;18.50;59.20;;;;;;5110143;28;20073;-73
2022/05/28 03:39:28;;;;;;;1.58;0.90;;;18.40;54.40;;;;;;5110095;28;20043;-73
2022/05/28 03:41:56;;;;;;;3.45;1.20;;;17.30;59.30;;;;;;5100050;28;20225;-73
2022/05/28 03:44:23;;;;;;;3.45;1.40;;;18.50;59.80;;;;;;5089634;28;20399;-73
2022/05/28 03:46:50;;;;;;;2.55;1.10;;;18.40;54.40;;;;;;5089732;28;20090;-72
2022/05/28 03:49:21;;;;;;;1.83;1.00;;;18.40;54.40;;;;;;5089324;28;20044;-72
2022/05/28 03:51:47;;;;;;;4.80;1.20;;;18.40;54.40;;;;;;5089751;28;20063;-72
2022/05/28 03:54:14;;;;;;;3.25;1.20;;;18.40;54.40;;;;;;5089006;28;20062;-72
2022/05/28 03:56:41;;;;;;;1.75;1.05;;;18.30;58.20;;;;;;5089602;28;20050;-72
2022/05/28 03:59:09;;;;;;;3.92;1.13;;;18.50;59.10;;;;;;5089318;28;20044;-72
2022/05/28 04:01:36;;;;;;;3.10;1.20;;;18.30;54.40;;;;;;5090568;28;20504;-72
2022/05/28 04:04:03;;;;;;;2.25;1.00;;;18.30;58.60;;;;;;5088573;28;20729;-72
2022/05/28 04:06:30;;;;;;;3.65;1.25;;;18.50;58.70;;;;;;5089278;28;20163;-72
2022/05/28 04:08:57;;;;;;;2.25;1.15;;;18.20;58.50;;;;;;5089043;28;20048;-72
2022/05/28 04:11:24;;;;;;;3.33;1.10;;;19.50;60.00;;;;;;5094596;28;20043;-73
2022/05/28 04:13:50;;;;;;;1.92;1.15;;;18.80;58.10;;;;;;5109402;28;20409;-72
2022/05/28 04:16:18;;;;;;;2.30;1.10;;;19.20;58.70;;;;;;5092449;28;20055;-73
2022/05/28 04:18:45;;;;;;;3.25;1.23;;;18.30;54.40;;;;;;5109347;28;20059;-73
2022/05/28 04:21:12;;;;;;;2.30;1.17;;;18.20;58.70;;;;;;5107405;28;20047;-73
2022/05/28 04:23:39;;;;;;;2.33;1.20;;;19.40;60.60;;;;;;5109018;28;20051;-73
2022/05/28 04:26:06;;;;;;;3.05;1.20;;;18.30;54.40;;;;;;5109055;28;20055;-72
2022/05/28 04:28:32;;;;;;;3.67;1.00;;;18.30;54.40;;;;;;5108814;28;20523;-73
2022/05/28 04:30:59;;;;;;;2.75;1.33;;;18.30;54.40;;;;;;5108918;28;20061;-72
2022/05/28 04:33:27;;;;;;;2.15;1.27;;;18.20;58.30;;;;;;5089190;28;20742;-72
2022/05/28 04:35:54;;;;;;;2.13;1.13;;;18.30;54.40;;;;;;5088007;28;20062;-73
2022/05/28 04:38:21;;;;;;;1.73;1.05;;;17.20;58.70;;;;;;5088164;28;20486;-73
2022/05/28 04:40:48;;;;;;;3.10;1.20;;;19.40;59.50;;;;;;5088747;28;20117;-72
2022/05/28 04:43:14;;;;;;;2.28;1.20;;;18.30;59.00;;;;;;5089060;28;20131;-73
2022/05/28 04:45:41;;;;;;;3.33;1.17;;;18.30;54.40;;;;;;5108854;28;20075;-72
2022/05/28 04:48:08;;;;;;;2.25;1.08;;;18.40;59.00;;;;;;5109909;28;20043;-72
2022/05/28 04:50:36;;;;;;;2.22;1.00;;;18.40;58.60;;;;;;5108727;28;20058;-72
2022/05/28 04:53:03;;;;;;;2.90;1.30;;;18.30;54.30;;;;;;5092513;28;20048;-72
2022/05/28 04:55:30;;;;;;;3.13;1.10;;;18.30;54.30;;;;;;5088284;28;20059;-72
2022/05/28 04:57:57;;;;;;;2.53;1.10;;;17.60;58.40;;;;;;5088057;28;20052;-72
2022/05/28 05:00:25;;;;;;;2.95;1.08;;;18.30;54.90;;;;;;5089124;28;20670;-72
2022/05/28 05:02:52;;;;;;;4.32;1.30;;;18.40;59.60;;;;;;5101145;28;20138;-72
2022/05/28 05:05:18;;;;;;;2.00;1.10;;;18.20;58.40;;;;;;5108075;28;20047;-72
2022/05/28 05:07:46;;;;;;;1.77;1.05;;;18.00;58.40;;;;;;5108460;28;20252;-72
2022/05/28 05:10:13;;;;;;;2.92;1.17;;;18.20;58.30;;;;;;5108281;28;20140;-72
2022/05/28 05:12:45;;;;;;;4.00;1.20;;;18.30;54.30;;;;;;5097643;28;20048;-72
2022/05/28 05:15:12;;;;;;;2.75;1.00;;;18.30;54.30;;;;;;5087500;28;20058;-71
2022/05/28 05:17:39;;;;;;;1.88;1.17;;;18.30;54.30;;;;;;5087830;28;20501;-72
2022/05/28 05:20:07;;;;;;;2.80;1.13;;;18.90;59.70;;;;;;5088102;28;20055;-72
2022/05/28 05:22:34;;;;;;;3.45;1.20;;;18.30;59.20;;;;;;5098324;28;20051;-72
2022/05/28 05:25:02;;;;;;;2.05;1.10;;;18.30;54.30;;;;;;5107879;28;20065;-72
2022/05/28 05:27:28;;;;;;;3.35;1.42;;;18.50;58.80;;;;;;5108050;28;20513;-72
2022/05/28 05:29:57;;;;;;;2.35;1.33;;;18.10;59.00;;;;;;5107844;28;20050;-72
2022/05/28 05:32:24;;;;;;;3.58;1.25;;;18.30;54.10;;;;;;5107564;28;20139;-72
2022/05/28 05:34:51;;;;;;;3.10;1.20;;;18.60;60.00;;;;;;5108630;28;20047;-72
2022/05/28 05:37:17;;;;;;;1.73;1.05;;;18.40;54.10;;;;;;5108218;28;20073;-72
2022/05/28 05:39:44;;;;;;;3.92;1.40;;;18.30;58.00;;;;;;5108095;28;20075;-72
2022/05/28 05:42:12;;;;;;;2.75;1.20;;;18.50;54.10;;;;;;5100782;28;20051;-71
2022/05/28 05:44:39;;;;;;;2.47;1.20;;;18.50;59.00;;;;;;5087047;28;20056;-72
2022/05/28 05:47:06;;;;;;;2.03;1.10;;;18.70;59.50;;;;;;5087708;28;20082;-72
2022/05/28 05:49:32;;;;;;;3.45;1.33;;;18.30;58.50;;;;;;5090966;28;20530;-72
2022/05/28 05:51:59;;;;;;;2.95;1.20;;;18.60;53.90;;;;;;5107627;28;20062;-72
2022/05/28 05:54:26;;;;;;;3.63;1.30;;;19.10;58.70;;;;;;5111064;28;20057;-72
2022/05/28 05:56:53;;;;;;;2.85;1.17;;;18.70;58.60;;;;;;5111943;28;20066;-72
2022/05/28 05:59:22;;;;;;;3.00;1.40;;;19.50;59.00;;;;;;5112015;28;20051;-71
2022/05/28 06:01:48;;;;;;;2.90;1.20;;;18.20;58.00;;;;;;5110893;28;20055;-72
2022/05/28 06:04:15;;;;;;;2.38;1.15;;;18.90;58.50;;;;;;5111719;28;20472;-72
2022/05/28 06:06:42;;;;;;;3.63;1.33;;;19.10;58.70;;;;;;5112885;28;20044;-71
2022/05/28 06:09:09;;;;;;;2.45;1.20;;;18.50;57.10;;;;;;5112794;28;20040;-72
2022/05/28 06:11:36;;;;;;;2.55;1.20;;;19.10;53.30;;;;;;5110719;28;20054;-72
2022/05/28 06:14:03;;;;;;;4.43;1.42;;;18.40;56.40;;;;;;5111596;28;20073;-71
2022/05/28 06:16:31;;;;;;;2.78;1.40;;;19.10;53.10;;;;;;5111813;28;20508;-72
2022/05/28 06:18:58;;;;;;;4.65;1.30;;;19.00;57.30;;;;;;5112371;28;20118;-71
2022/05/28 06:21:25;;;;;;;3.58;1.40;;;19.10;53.00;;;;;;5101648;28;20052;-71
2022/05/28 06:23:52;;;;;;;2.65;1.20;;;19.10;56.20;;;;;;5091774;28;20047;-72
2022/05/28 06:26:18;;;;;;;1.73;1.00;;;19.10;53.00;;;;;;5092275;28;20405;-72
2022/05/28 06:28:45;;;;;;;2.42;1.20;;;19.10;57.10;;;;;;5099887;28;20127;-72
2022/05/28 06:31:12;;;;;;;2.35;1.17;;;19.20;57.70;;;;;;5111252;28;20057;-72
2022/05/28 06:33:41;;;;;;;3.10;1.17;;;19.20;57.00;;;;;;5111276;28;20059;-73
2022/05/28 06:36:08;;;;;;;2.33;1.10;;;19.40;57.00;;;;;;5111884;28;20066;-71
2022/05/28 06:38:35;;;;;;;4.32;1.20;;;19.00;57.20;;;;;;5111406;28;20142;-71
2022/05/28 06:41:02;;;;;;;2.97;1.50;;;19.40;57.30;;;;;;5102962;28;20062;-71
2022/05/28 06:43:29;;;;;;;2.85;1.40;;;19.30;58.00;;;;;;5091718;28;20560;-72
2022/05/28 06:45:56;;;;;;;2.40;1.10;;;19.10;52.80;;;;;;5091075;28;20458;-71
2022/05/28 06:48:22;;;;;;;3.15;1.30;;;18.50;57.80;;;;;;5090689;28;20048;-71
2022/05/28 06:51:02;;;;;;;3.53;1.30;;;19.20;52.90;;;;;;5095404;28;20055;-71
2022/05/28 06:53:29;;;;;;;3.78;1.50;;;19.20;52.80;;;;;;5102604;28;20094;-71
2022/05/28 06:55:56;;;;;;;3.40;1.27;;;19.20;52.70;;;;;;5101131;28;20495;-71
2022/05/28 06:58:23;;;;;;;4.32;1.42;;;19.50;56.90;;;;;;5100899;28;20036;-71
2022/05/28 07:00:49;;;;;;;3.97;1.45;;;19.40;52.60;;;;;;5100722;28;20481;-72
2022/05/28 07:03:18;;;;;;;3.97;1.25;;;19.30;56.90;;;;;;5100264;28;20123;-71
2022/05/28 07:05:44;;;;;;;3.95;1.20;;;19.50;52.50;;;;;;5111602;28;20055;-72
2022/05/28 07:08:12;;;;;;;2.78;1.38;;;19.50;57.60;;;;;;5111086;28;20075;-72
2022/05/28 07:10:43;;;;;;;3.90;1.38;;;19.70;57.00;;;;;;5108111;28;20071;-71
2022/05/28 07:13:10;;;;;;;3.10;1.15;;;20.50;57.70;;;;;;5090908;28;20426;-73
2022/05/28 07:15:37;;;;;;;2.60;1.23;;;19.70;56.90;;;;;;5093571;28;20048;-72
2022/05/28 07:18:04;;;;;;;3.65;1.30;;;19.60;56.90;;;;;;5100213;28;20043;-70
2022/05/28 07:20:30;;;;;;;5.55;1.40;;;19.60;52.30;;;;;;5099516;28;20508;-72
2022/05/28 07:22:57;;;;;;;3.47;1.27;;;19.70;52.40;;;;;;5110645;28;20069;-72
2022/05/28 07:25:25;;;;;;;3.03;1.45;;;19.70;52.30;;;;;;5107182;28;20579;-71
2022/05/28 07:27:52;;;;;;;2.63;1.10;;;19.80;57.10;;;;;;5099260;27;20056;-71
2022/05/28 07:30:18;;;;;;;3.80;1.20;;;20.00;57.30;;;;;;5103045;27;20044;-71
2022/05/28 07:32:45;;;;;;;2.42;1.20;;;20.80;56.70;;;;;;5104531;28;20047;-72
2022/05/28 07:35:13;;;;;;;3.88;1.38;;;20.10;52.00;;;;;;5110221;28;20405;-72
2022/05/28 07:37:40;;;;;;;2.80;1.30;;;21.50;57.60;;;;;;5099698;27;20065;-72
2022/05/28 07:40:08;;;;;;;4.13;1.48;;;20.20;51.90;;;;;;5102656;28;20075;-72
2022/05/28 07:42:36;;;;;;;3.15;1.48;;;20.20;51.80;;;;;;5095806;28;20063;-71
2022/05/28 07:45:04;;;;;;;3.72;1.58;;;18.10;54.70;;;;;;5096303;28;20048;-71
2022/05/28 07:47:31;;;;;;;2.25;1.20;;;20.20;51.80;;;;;;5098609;28;20056;-72
2022/05/28 07:49:58;;;;;;;2.85;1.20;;;20.20;51.90;;;;;;5099936;28;20058;-71
2022/05/28 07:52:24;;;;;;;3.35;1.55;;;20.10;56.70;;;;;;5109504;28;20064;-72
2022/05/28 07:54:51;;;;;;;4.88;1.50;;;20.20;56.40;;;;;;5108241;28;20061;-72
2022/05/28 07:57:18;;;;;;;2.40;1.25;;;20.10;51.90;;;;;;5089509;28;20414;-72
2022/05/28 07:59:46;;;;;;;4.43;1.42;;;20.10;57.10;;;;;;5090487;28;20064;-73
2022/05/28 08:02:12;;;;;;;4.32;1.38;;;20.10;51.90;;;;;;5107768;28;20047;-72
2022/05/28 08:04:39;;;;;;;6.30;1.33;;;20.20;57.00;;;;;;5108411;28;20136;-72
2022/05/28 08:07:06;;;;;;;4.25;1.30;;;20.10;55.90;;;;;;5106638;28;20055;-72
2022/05/28 08:09:33;;;;;;;4.30;1.40;;;20.20;57.00;;;;;;5088649;28;20505;-72
2022/05/28 08:11:59;;;;;;;3.78;1.45;;;20.20;52.00;;;;;;5088334;28;20102;-72
2022/05/28 08:14:26;;;;;;;5.93;1.60;;;20.30;51.90;;;;;;5095689;28;20120;-72
2022/05/28 08:16:54;;;;;;;3.95;1.33;;;21.00;56.20;;;;;;5108900;28;20052;-72
2022/05/28 08:19:21;;;;;;;4.45;1.52;;;21.40;56.00;;;;;;5103776;28;20044;-72
2022/05/28 08:24:31;;;;;;;4.57;1.50;;;20.60;55.80;;;;;;5097651;28;20040;-72
2022/05/28 08:26:58;;;;;;;6.93;1.50;;;20.30;51.20;;;;;;5090356;28;20052;-73
2022/05/28 08:29:25;;;;;;;3.55;1.48;;;20.30;55.30;;;;;;5102753;28;20047;-71
2022/05/28 08:31:53;;;;;;;3.58;1.45;;;20.40;55.30;;;;;;5108855;28;20048;-71
2022/05/28 08:34:20;;;;;;;4.97;1.50;;;20.20;51.20;;;;;;5108484;28;20144;-71
2022/05/28 08:36:47;;;;;;;6.88;1.98;;;20.10;55.50;;;;;;5109148;28;20051;-71
2022/05/28 08:39:13;;;;;;;5.55;1.77;;;21.10;56.30;;;;;;5109783;28;20055;-71
2022/05/28 08:41:44;;;;;;;5.43;1.50;;;20.10;55.50;;;;;;5109035;28;20406;-71
2022/05/28 08:44:15;;;;;;;2.65;1.27;;;20.30;55.00;;;;;;5103826;28;20054;-71
2022/05/28 08:46:43;;;;;;;4.13;1.50;;;20.80;55.70;;;;;;5093729;28;20048;-71
2022/05/28 08:49:12;;;;;;;5.82;1.50;;;21.70;56.60;;;;;;5108758;28;20058;-71
2022/05/28 08:51:40;;;;;;;4.72;1.67;;;20.30;51.30;;;;;;5109890;28;20051;-71
2022/05/28 08:54:10;;;;;;;4.78;1.45;;;20.40;56.00;;;;;;5108771;28;20039;-70
2022/05/28 08:56:37;;;;;;;4.05;1.50;;;20.50;56.60;;;;;;5110427;28;20048;-71
2022/05/28 08:59:06;;;;;;;5.00;1.70;;;20.40;55.70;;;;;;5110335;28;20043;-71
2022/05/28 09:01:33;;;;;;;5.20;1.70;;;20.60;51.10;;;;;;5109642;28;20116;-70
2022/05/28 09:04:01;;;;;;;3.10;1.42;;;20.90;54.10;;;;;;5108980;28;20418;-72
2022/05/28 09:06:32;;;;;;;3.08;1.45;;;20.70;50.90;;;;;;5109792;28;20710;-71
2022/05/28 09:08:59;;;;;;;2.75;1.35;;;20.80;50.80;;;;;;5109000;28;20047;-71
2022/05/28 09:11:33;;;;;;;3.55;1.40;;;20.70;54.50;;;;;;5104390;28;20135;-72
2022/05/28 09:14:04;;;;;;;4.43;1.27;;;20.60;53.60;;;;;;5094417;28;20122;-72
2022/05/28 09:16:32;;;;;;;5.93;1.80;;;20.50;54.80;;;;;;5096793;28;20469;-72
2022/05/28 09:19:00;;;;;;;4.07;1.42;;;21.00;55.20;;;;;;5101084;28;20661;-72
2022/05/28 09:21:28;;;;;;;4.38;1.70;;;20.80;50.60;;;;;;5097507;28;20494;-72
2022/05/28 09:23:56;;;;;;;4.03;1.77;;;20.80;53.70;;;;;;5100901;28;20146;-73
2022/05/28 09:26:29;;;;;;;3.92;1.60;;;20.80;50.60;;;;;;5099181;28;20402;-73
2022/05/28 09:29:02;;;;;;;3.20;1.50;;;20.80;50.60;;;;;;5099629;28;20059;-73
2022/05/28 09:31:39;;;;;;;6.15;1.70;;;21.00;55.10;;;;;;5096867;28;20048;-73
2022/05/28 09:34:25;;;;;;;4.00;1.63;;;20.80;55.00;;;;;;5098110;28;20063;-73
2022/05/28 09:36:57;;;;;;;3.35;1.58;;;20.90;50.70;;;;;;5098425;28;20058;-73
2022/05/28 09:39:34;;;;;;;4.03;1.40;;;20.90;55.20;;;;;;5097097;28;20161;-73
2022/05/28 09:42:05;;;;;;;3.72;1.63;;;20.90;50.60;;;;;;5087691;28;20078;-73
2022/05/28 09:44:39;;;;;;;4.05;1.40;;;21.00;55.20;;;;;;5095590;28;20624;-72
2022/05/28 09:47:09;;;;;;;4.57;1.88;;;21.20;54.80;;;;;;5097233;28;20563;-73
2022/05/28 09:49:45;;;;;;;3.03;1.40;;;20.60;55.00;;;;;;5098740;28;20040;-72
2022/05/28 09:52:13;;;;;;;3.45;1.50;;;20.70;55.60;;;;;;5110464;28;20145;-73
2022/05/28 09:54:39;;;;;;;3.25;1.40;;;20.70;54.50;;;;;;5110370;28;20090;-71
2022/05/28 09:57:10;;;;;;;2.83;1.45;;;21.30;54.80;;;;;;5110612;28;20071;-72
2022/05/28 09:59:37;;;;;;;1.88;1.27;;;20.90;50.50;;;;;;5109757;28;20040;-73
2022/05/28 10:02:16;;;;;;;4.47;1.60;;;20.80;54.30;;;;;;5107690;28;20059;-71
2022/05/28 10:04:46;;;;;;;3.78;1.63;;;21.10;54.70;;;;;;5106475;28;20114;-70
2022/05/28 10:07:14;;;;;;;3.53;1.30;;;20.80;54.70;;;;;;5108288;28;20082;-72
2022/05/28 10:09:49;;;;;;;3.85;1.48;;;20.80;50.40;;;;;;5107323;28;20048;-73
2022/05/28 10:12:17;;;;;;;3.83;1.50;;;20.80;50.40;;;;;;5108478;28;20058;-71
2022/05/28 10:14:44;;;;;;;7.72;1.55;;;20.80;54.30;;;;;;5090940;28;20048;-71
2022/05/28 10:17:11;;;;;;;7.25;1.52;;;20.70;50.60;;;;;;5088465;28;20426;-72
2022/05/28 10:19:40;;;;;;;3.65;1.40;;;20.70;50.60;;;;;;5088272;28;20054;-72
2022/05/28 10:22:12;;;;;;;3.63;1.52;;;20.60;55.00;;;;;;5087908;28;20052;-71
2022/05/28 10:24:44;;;;;;;5.45;1.50;;;20.50;54.50;;;;;;5103486;28;20055;-71
2022/05/28 10:27:28;;;;;;;5.55;1.58;;;20.40;54.20;;;;;;5107957;28;20055;-72
2022/05/28 10:29:56;;;;;;;4.80;1.60;;;20.60;50.70;;;;;;5107449;28;20079;-72
2022/05/28 10:32:28;;;;;;;2.53;1.35;;;20.60;50.70;;;;;;5107926;28;20660;-72
2022/05/28 10:35:16;;;;;;;3.55;1.30;;;21.10;54.40;;;;;;5109116;28;20065;-72
2022/05/28 10:37:43;;;;;;;5.35;1.42;;;20.60;55.60;;;;;;5107725;28;20132;-71
2022/05/28 10:40:18;;;;;;;3.80;1.63;;;20.60;50.80;;;;;;5105006;28;20044;-73
2022/05/28 10:42:45;;;;;;;6.28;1.85;;;20.00;55.60;;;;;;5100659;28;20040;-73
2022/05/28 10:45:12;;;;;;;3.10;1.50;;;20.50;55.20;;;;;;5101277;28;20063;-72
2022/05/28 10:48:03;;;;;;;4.82;1.60;;;20.60;51.00;;;;;;5103849;28;20130;-73
2022/05/28 10:50:35;;;;;;;2.88;1.40;;;20.60;55.70;;;;;;5104604;28;20048;-73
2022/05/28 10:53:08;;;;;;;3.33;1.40;;;20.40;55.90;;;;;;5110541;28;20044;-73
2022/05/28 10:55:42;;;;;;;2.35;1.35;;;20.50;54.70;;;;;;5091639;28;20482;-72
2022/05/28 10:58:15;;;;;;;5.90;1.50;;;20.60;51.00;;;;;;5106556;28;20050;-72
2022/05/28 11:00:47;;;;;;;4.47;1.60;;;20.60;51.10;;;;;;5111533;28;20050;-71
2022/05/28 11:03:38;;;;;;;5.03;1.50;;;20.60;51.20;;;;;;5109319;28;20133;-72
2022/05/28 11:06:31;;;;;;;3.50;1.60;;;21.70;55.80;;;;;;5111714;28;20055;-72
2022/05/28 11:09:01;;;;;;;4.78;1.30;;;20.40;55.70;;;;;;5094028;28;20039;-72
2022/05/28 11:11:51;;;;;;;5.43;1.40;;;20.50;55.20;;;;;;5111052;28;20051;-72
2022/05/28 11:14:25;;;;;;;4.85;1.65;;;20.50;56.00;;;;;;5098757;28;20052;-71
2022/05/28 11:17:03;;;;;;;4.38;1.45;;;20.50;55.30;;;;;;5092004;28;20059;-71
2022/05/28 11:19:36;;;;;;;4.05;1.35;;;20.70;55.50;;;;;;5116958;27;20047;-71
2022/05/28 11:22:44;;;;;;;4.25;1.50;;;20.70;51.30;;;;;;5130849;27;20577;-72
2022/05/28 11:25:14;;;;;;;3.53;1.40;;;20.70;51.20;;;;;;5109575;27;20058;-72
2022/05/28 11:27:58;;;;;;;4.47;1.50;;;20.70;51.20;;;;;;5110593;28;20051;-72
2022/05/28 11:30:25;;;;;;;5.95;1.40;;;22.00;56.70;;;;;;5090232;28;20059;-72
2022/05/28 11:32:55;;;;;;;4.65;1.30;;;21.80;56.30;;;;;;5103640;28;20062;-74
2022/05/28 11:35:30;;;;;;;3.15;1.45;;;20.60;55.50;;;;;;5109947;28;20066;-72
2022/05/28 11:38:02;;;;;;;7.50;1.40;;;20.10;55.60;;;;;;5110286;28;20055;-72
2022/05/28 11:40:30;;;;;;;3.20;1.40;;;20.70;51.10;;;;;;5110416;28;20047;-71
2022/05/28 11:42:59;;;;;;;3.35;1.40;;;20.80;51.00;;;;;;5110255;28;20047;-73
2022/05/28 11:45:30;;;;;;;3.45;1.30;;;20.50;54.90;;;;;;5108039;28;20054;-73
2022/05/28 11:47:58;;;;;;;2.88;1.33;;;20.70;51.10;;;;;;5110160;28;20493;-72
2022/05/28 11:53:17;;;;;;;3.90;1.50;;;20.70;51.00;;;;;;5093441;28;20056;-72
2022/05/28 11:55:44;;;;;;;5.60;1.42;;;20.60;51.10;;;;;;5089364;28;20062;-72
2022/05/28 11:58:16;;;;;;;5.35;1.73;;;21.00;55.50;;;;;;5090630;28;20074;-72
2022/05/28 12:00:42;;;;;;;5.85;1.60;;;20.40;55.20;;;;;;5089168;28;20055;-72
2022/05/28 12:03:16;;;;;;;8.80;1.40;;;20.60;51.40;;;;;;5104663;28;20424;-72
2022/05/28 12:05:43;;;;;;;3.60;1.23;;;20.60;51.50;;;;;;5110625;28;20138;-72
2022/05/28 12:08:20;;;;;;;3.63;1.38;;;19.50;55.20;;;;;;5109110;28;20113;-72
2022/05/28 12:10:47;;;;;;;6.63;1.90;;;20.60;51.90;;;;;;5110447;28;20046;-72
2022/05/28 12:13:30;;;;;;;4.18;1.40;;;20.60;52.00;;;;;;5092662;28;20060;-72
2022/05/28 12:16:09;;;;;;;5.68;1.60;;;20.80;56.50;;;;;;5088898;28;20061;-72
2022/05/28 12:18:35;;;;;;;3.88;1.63;;;20.60;52.20;;;;;;5088908;28;20062;-72
2022/05/28 12:21:02;;;;;;;3.30;1.38;;;20.60;52.20;;;;;;5088639;28;20048;-72
2022/05/28 12:23:34;;;;;;;2.88;1.30;;;20.70;57.10;;;;;;5106325;28;20138;-72
2022/05/28 12:26:02;;;;;;;3.58;1.50;;;20.70;52.40;;;;;;5108624;28;20060;-72
2022/05/28 12:28:47;;;;;;;4.00;1.30;;;20.90;57.50;;;;;;5109038;28;20390;-72
2022/05/28 12:31:23;;;;;;;3.22;1.30;;;20.80;56.00;;;;;;5108796;28;20065;-72
2022/05/28 12:33:51;;;;;;;3.58;1.42;;;20.90;54.80;;;;;;5091894;28;20420;-72
2022/05/28 12:36:21;;;;;;;6.03;1.50;;;20.80;52.40;;;;;;5108668;28;20066;-72
2022/05/28 12:38:52;;;;;;;5.50;1.27;;;20.80;57.20;;;;;;5108209;28;20055;-73
2022/05/28 12:41:23;;;;;;;5.32;1.50;;;21.30;56.50;;;;;;5109151;28;20056;-72
2022/05/28 12:43:57;;;;;;;12.98;2.03;;;20.90;54.80;;;;;;5108237;28;20081;-71
2022/05/28 12:46:37;;;;;;;5.30;1.30;;;20.70;52.30;;;;;;5102649;28;20052;-71
2022/05/28 12:49:05;;;;;;;5.13;1.67;;;20.60;52.30;;;;;;5088492;28;20074;-71
2022/05/28 12:51:34;;;;;;;3.90;1.60;;;20.40;56.80;;;;;;5087809;28;20044;-71
2022/05/28 12:54:01;;;;;;;4.70;1.40;;;20.50;54.90;;;;;;5095897;28;20070;-71
2022/05/28 12:56:41;;;;;;;5.43;1.35;;;20.40;56.00;;;;;;5089959;28;20048;-71
2022/05/28 12:59:10;;;;;;;6.80;1.50;;;20.80;56.20;;;;;;5094272;28;20040;-71
2022/05/28 13:01:48;;;;;;;4.45;1.50;;;20.50;52.00;;;;;;5096953;28;20563;-71
2022/05/28 13:04:16;;;;;;;3.33;1.30;;;20.50;55.20;;;;;;5104816;28;20135;-71